sensor_id;sensor_type;location;lat;lon;timestamp;temperature;humidity
14192;DHT22;7177;48.572;7.838;2023-03-03T00:00:07;0.70;99.90
14192;DHT22;7177;48.572;7.838;2023-03-03T00:02:33;0.80;99.90
14192;DHT22;7177;48.572;7.838;2023-03-03T00:04:58;0.80;99.90
14192;DHT22;7177;48.572;7.838;2023-03-03T00:07:24;0.80;99.90
14192;DHT22;7177;48.572;7.838;2023-03-03T00:09:50;0.90;99.90
14192;DHT22;7177;48.572;7.838;2023-03-03T00:12:29;0.80;99.90
14192;DHT22;7177;48.572;7.838;2023-03-03T00:14:55;0.80;99.90
14192;DHT22;7177;48.572;7.838;2023-03-03T00:17:29;0.80;99.90
14192;DHT22;7177;48.572;7.838;2023-03-03T00:19:55;0.70;99.90
14192;DHT22;7177;48.572;7.838;2023-03-03T00:22:28;0.70;99.90
14192;DHT22;7177;48.572;7.838;2023-03-03T00:24:57;0.60;99.90
14192;DHT22;7177;48.572;7.838;2023-03-03T00:27:30;0.50;99.90
14192;DHT22;7177;48.572;7.838;2023-03-03T00:29:59;0.60;99.90
14192;DHT22;7177;48.572;7.838;2023-03-03T00:32:39;0.40;99.90
14192;DHT22;7177;48.572;7.838;2023-03-03T00:37:57;0.40;99.90
14192;DHT22;7177;48.572;7.838;2023-03-03T00:40:36;0.40;99.90
14192;DHT22;7177;48.572;7.838;2023-03-03T00:43:33;0.50;99.90
14192;DHT22;7177;48.572;7.838;2023-03-03T00:45:57;0.60;99.90
14192;DHT22;7177;48.572;7.838;2023-03-03T00:48:31;0.60;99.90
14192;DHT22;7177;48.572;7.838;2023-03-03T00:51:27;0.60;99.90
14192;DHT22;7177;48.572;7.838;2023-03-03T00:53:53;0.60;99.90
14192;DHT22;7177;48.572;7.838;2023-03-03T00:56:18;0.60;99.90
14192;DHT22;7177;48.572;7.838;2023-03-03T00:58:44;0.50;99.90
14192;DHT22;7177;48.572;7.838;2023-03-03T01:01:12;0.50;99.90
14192;DHT22;7177;48.572;7.838;2023-03-03T01:03:37;0.40;99.90
14192;DHT22;7177;48.572;7.838;2023-03-03T01:06:03;0.40;99.90
14192;DHT22;7177;48.572;7.838;2023-03-03T01:08:29;0.30;99.90
14192;DHT22;7177;48.572;7.838;2023-03-03T01:10:57;0.30;99.90
14192;DHT22;7177;48.572;7.838;2023-03-03T01:13:26;0.40;99.90
14192;DHT22;7177;48.572;7.838;2023-03-03T01:15:52;0.30;99.90
14192;DHT22;7177;48.572;7.838;2023-03-03T01:18:18;0.30;99.90
14192;DHT22;7177;48.572;7.838;2023-03-03T01:20:44;0.30;99.90
14192;DHT22;7177;48.572;7.838;2023-03-03T01:23:09;0.30;99.90
14192;DHT22;7177;48.572;7.838;2023-03-03T01:25:35;0.30;99.90
14192;DHT22;7177;48.572;7.838;2023-03-03T01:28:01;0.40;99.90
14192;DHT22;7177;48.572;7.838;2023-03-03T01:30:27;0.30;99.90
14192;DHT22;7177;48.572;7.838;2023-03-03T01:32:53;0.30;99.90
14192;DHT22;7177;48.572;7.838;2023-03-03T01:35:18;0.30;99.90
14192;DHT22;7177;48.572;7.838;2023-03-03T01:37:44;0.30;99.90
14192;DHT22;7177;48.572;7.838;2023-03-03T01:40:19;0.30;99.90
14192;DHT22;7177;48.572;7.838;2023-03-03T01:42:45;0.30;99.90
14192;DHT22;7177;48.572;7.838;2023-03-03T01:45:22;0.20;99.90
14192;DHT22;7177;48.572;7.838;2023-03-03T01:48:31;0.10;99.90
14192;DHT22;7177;48.572;7.838;2023-03-03T01:51:19;0.10;99.90
14192;DHT22;7177;48.572;7.838;2023-03-03T01:53:53;0.00;99.90
14192;DHT22;7177;48.572;7.838;2023-03-03T01:56:19;0.00;99.90
14192;DHT22;7177;48.572;7.838;2023-03-03T01:58:52;0.00;99.90
14192;DHT22;7177;48.572;7.838;2023-03-03T02:01:21;0.00;99.90
14192;DHT22;7177;48.572;7.838;2023-03-03T02:03:47;0.00;99.90
14192;DHT22;7177;48.572;7.838;2023-03-03T02:06:15;0.00;99.90
14192;DHT22;7177;48.572;7.838;2023-03-03T02:09:09;0.00;99.90
14192;DHT22;7177;48.572;7.838;2023-03-03T02:11:37;-0.10;99.90
14192;DHT22;7177;48.572;7.838;2023-03-03T02:14:03;0.00;99.90
14192;DHT22;7177;48.572;7.838;2023-03-03T02:16:28;0.00;99.90
14192;DHT22;7177;48.572;7.838;2023-03-03T02:18:54;0.00;99.90
14192;DHT22;7177;48.572;7.838;2023-03-03T02:21:24;0.00;99.90
14192;DHT22;7177;48.572;7.838;2023-03-03T02:24:24;0.10;99.90
14192;DHT22;7177;48.572;7.838;2023-03-03T02:26:48;0.10;99.90
14192;DHT22;7177;48.572;7.838;2023-03-03T02:29:14;0.00;99.90
14192;DHT22;7177;48.572;7.838;2023-03-03T02:31:39;0.10;99.90
14192;DHT22;7177;48.572;7.838;2023-03-03T02:34:05;-0.10;99.90
14192;DHT22;7177;48.572;7.838;2023-03-03T02:36:34;-0.10;99.90
14192;DHT22;7177;48.572;7.838;2023-03-03T02:39:12;-0.10;99.90
14192;DHT22;7177;48.572;7.838;2023-03-03T02:44:19;-0.10;99.90
14192;DHT22;7177;48.572;7.838;2023-03-03T02:46:46;-0.30;99.90
14192;DHT22;7177;48.572;7.838;2023-03-03T02:49:16;-0.40;99.90
14192;DHT22;7177;48.572;7.838;2023-03-03T02:51:42;-0.40;99.90
14192;DHT22;7177;48.572;7.838;2023-03-03T02:54:10;-0.40;99.90
14192;DHT22;7177;48.572;7.838;2023-03-03T02:56:36;-0.40;99.90
14192;DHT22;7177;48.572;7.838;2023-03-03T02:59:02;-0.40;99.90
14192;DHT22;7177;48.572;7.838;2023-03-03T03:01:28;-0.40;99.90
14192;DHT22;7177;48.572;7.838;2023-03-03T03:03:56;-0.30;99.90
14192;DHT22;7177;48.572;7.838;2023-03-03T03:06:22;-0.30;99.90
14192;DHT22;7177;48.572;7.838;2023-03-03T03:08:47;-0.20;99.90
14192;DHT22;7177;48.572;7.838;2023-03-03T03:11:13;-0.20;99.90
14192;DHT22;7177;48.572;7.838;2023-03-03T03:13:38;-0.20;99.90
14192;DHT22;7177;48.572;7.838;2023-03-03T03:16:04;-0.10;99.90
14192;DHT22;7177;48.572;7.838;2023-03-03T03:18:30;-0.20;99.90
14192;DHT22;7177;48.572;7.838;2023-03-03T03:20:56;-0.20;99.90
14192;DHT22;7177;48.572;7.838;2023-03-03T03:23:21;-0.20;99.90
14192;DHT22;7177;48.572;7.838;2023-03-03T03:25:47;-0.20;99.90
14192;DHT22;7177;48.572;7.838;2023-03-03T03:28:15;-0.20;99.90
14192;DHT22;7177;48.572;7.838;2023-03-03T03:30:41;-0.20;99.90
14192;DHT22;7177;48.572;7.838;2023-03-03T03:33:09;-0.20;99.90
14192;DHT22;7177;48.572;7.838;2023-03-03T03:35:35;-0.20;99.90
14192;DHT22;7177;48.572;7.838;2023-03-03T03:38:01;-0.20;99.90
14192;DHT22;7177;48.572;7.838;2023-03-03T03:40:27;0.00;99.90
14192;DHT22;7177;48.572;7.838;2023-03-03T03:42:53;-0.20;99.90
14192;DHT22;7177;48.572;7.838;2023-03-03T03:45:19;-0.20;99.90
14192;DHT22;7177;48.572;7.838;2023-03-03T03:47:44;-0.20;99.90
14192;DHT22;7177;48.572;7.838;2023-03-03T03:50:10;-0.30;99.90
14192;DHT22;7177;48.572;7.838;2023-03-03T03:52:36;-0.20;99.90
14192;DHT22;7177;48.572;7.838;2023-03-03T03:55:02;-0.20;99.90
14192;DHT22;7177;48.572;7.838;2023-03-03T03:57:28;-0.20;99.90
14192;DHT22;7177;48.572;7.838;2023-03-03T03:59:53;-0.20;99.90
14192;DHT22;7177;48.572;7.838;2023-03-03T04:02:19;-0.20;99.90
14192;DHT22;7177;48.572;7.838;2023-03-03T04:04:45;-0.20;99.90
14192;DHT22;7177;48.572;7.838;2023-03-03T04:07:10;-0.20;99.90
14192;DHT22;7177;48.572;7.838;2023-03-03T04:09:36;-0.30;99.90
14192;DHT22;7177;48.572;7.838;2023-03-03T04:12:01;-0.30;99.90
14192;DHT22;7177;48.572;7.838;2023-03-03T04:14:27;-0.30;99.90
14192;DHT22;7177;48.572;7.838;2023-03-03T04:16:52;-0.30;99.90
14192;DHT22;7177;48.572;7.838;2023-03-03T04:19:18;-0.30;99.90
14192;DHT22;7177;48.572;7.838;2023-03-03T04:21:43;-0.30;99.90
14192;DHT22;7177;48.572;7.838;2023-03-03T04:24:09;-0.30;99.90
14192;DHT22;7177;48.572;7.838;2023-03-03T04:26:34;-0.30;99.90
14192;DHT22;7177;48.572;7.838;2023-03-03T04:29:00;-0.10;99.90
14192;DHT22;7177;48.572;7.838;2023-03-03T04:31:26;-0.10;99.90
14192;DHT22;7177;48.572;7.838;2023-03-03T04:33:52;0.80;99.90
14192;DHT22;7177;48.572;7.838;2023-03-03T04:36:18;0.80;99.90
14192;DHT22;7177;48.572;7.838;2023-03-03T04:38:43;1.10;99.90
14192;DHT22;7177;48.572;7.838;2023-03-03T04:41:09;1.40;99.90
14192;DHT22;7177;48.572;7.838;2023-03-03T04:43:35;1.40;99.90
14192;DHT22;7177;48.572;7.838;2023-03-03T04:46:00;1.20;99.90
14192;DHT22;7177;48.572;7.838;2023-03-03T04:48:26;1.00;99.90
14192;DHT22;7177;48.572;7.838;2023-03-03T04:50:51;0.70;99.90
14192;DHT22;7177;48.572;7.838;2023-03-03T04:53:17;0.50;99.90
14192;DHT22;7177;48.572;7.838;2023-03-03T04:55:43;0.20;99.90
14192;DHT22;7177;48.572;7.838;2023-03-03T04:58:08;0.10;99.90
14192;DHT22;7177;48.572;7.838;2023-03-03T05:00:34;0.00;99.90
14192;DHT22;7177;48.572;7.838;2023-03-03T05:03:00;0.00;99.90
14192;DHT22;7177;48.572;7.838;2023-03-03T05:05:26;-0.10;99.90
14192;DHT22;7177;48.572;7.838;2023-03-03T05:07:52;-0.20;99.90
14192;DHT22;7177;48.572;7.838;2023-03-03T05:10:18;-0.20;99.90
14192;DHT22;7177;48.572;7.838;2023-03-03T05:12:43;-0.20;99.90
14192;DHT22;7177;48.572;7.838;2023-03-03T05:15:09;-0.20;99.90
14192;DHT22;7177;48.572;7.838;2023-03-03T05:17:35;-0.30;99.90
14192;DHT22;7177;48.572;7.838;2023-03-03T05:20:01;-0.30;99.90
14192;DHT22;7177;48.572;7.838;2023-03-03T05:22:26;-0.40;99.90
14192;DHT22;7177;48.572;7.838;2023-03-03T05:24:52;-0.30;99.90
14192;DHT22;7177;48.572;7.838;2023-03-03T05:27:18;-0.30;99.90
14192;DHT22;7177;48.572;7.838;2023-03-03T05:29:44;-0.20;99.90
14192;DHT22;7177;48.572;7.838;2023-03-03T05:32:10;-0.20;99.90
14192;DHT22;7177;48.572;7.838;2023-03-03T05:34:35;-0.20;99.90
14192;DHT22;7177;48.572;7.838;2023-03-03T05:37:01;-0.10;99.90
14192;DHT22;7177;48.572;7.838;2023-03-03T05:39:28;0.00;99.90
14192;DHT22;7177;48.572;7.838;2023-03-03T05:41:53;0.00;99.90
14192;DHT22;7177;48.572;7.838;2023-03-03T05:44:20;0.00;99.90
14192;DHT22;7177;48.572;7.838;2023-03-03T05:46:45;0.10;99.90
14192;DHT22;7177;48.572;7.838;2023-03-03T05:49:11;0.10;99.90
14192;DHT22;7177;48.572;7.838;2023-03-03T05:51:36;0.10;99.90
14192;DHT22;7177;48.572;7.838;2023-03-03T05:54:02;0.10;99.90
14192;DHT22;7177;48.572;7.838;2023-03-03T05:56:27;0.10;99.90
14192;DHT22;7177;48.572;7.838;2023-03-03T05:58:53;0.10;99.90
14192;DHT22;7177;48.572;7.838;2023-03-03T06:01:19;0.10;99.90
14192;DHT22;7177;48.572;7.838;2023-03-03T06:03:45;0.10;99.90
14192;DHT22;7177;48.572;7.838;2023-03-03T06:06:10;0.10;99.90
14192;DHT22;7177;48.572;7.838;2023-03-03T06:08:36;0.10;99.90
14192;DHT22;7177;48.572;7.838;2023-03-03T06:11:02;0.10;99.90
14192;DHT22;7177;48.572;7.838;2023-03-03T06:15:54;0.20;99.90
14192;DHT22;7177;48.572;7.838;2023-03-03T06:18:20;0.20;99.90
14192;DHT22;7177;48.572;7.838;2023-03-03T06:20:50;0.30;99.90
14192;DHT22;7177;48.572;7.838;2023-03-03T06:23:16;0.30;99.90
14192;DHT22;7177;48.572;7.838;2023-03-03T06:25:41;0.40;99.90
14192;DHT22;7177;48.572;7.838;2023-03-03T06:28:07;0.40;99.90
14192;DHT22;7177;48.572;7.838;2023-03-03T06:30:32;0.40;99.90
14192;DHT22;7177;48.572;7.838;2023-03-03T06:32:58;0.50;99.90
14192;DHT22;7177;48.572;7.838;2023-03-03T06:35:23;0.50;99.90
14192;DHT22;7177;48.572;7.838;2023-03-03T06:37:49;0.50;99.90
14192;DHT22;7177;48.572;7.838;2023-03-03T06:40:15;0.50;99.90
14192;DHT22;7177;48.572;7.838;2023-03-03T06:42:40;0.60;99.90
14192;DHT22;7177;48.572;7.838;2023-03-03T06:45:06;0.60;99.90
14192;DHT22;7177;48.572;7.838;2023-03-03T06:47:32;0.60;99.90
14192;DHT22;7177;48.572;7.838;2023-03-03T06:49:58;0.70;99.90
14192;DHT22;7177;48.572;7.838;2023-03-03T06:52:25;0.80;99.90
14192;DHT22;7177;48.572;7.838;2023-03-03T06:54:57;0.80;99.90
14192;DHT22;7177;48.572;7.838;2023-03-03T06:57:31;0.90;99.90
14192;DHT22;7177;48.572;7.838;2023-03-03T07:00:05;1.00;99.90
14192;DHT22;7177;48.572;7.838;2023-03-03T07:02:35;1.00;99.90
14192;DHT22;7177;48.572;7.838;2023-03-03T07:05:01;1.10;99.90
14192;DHT22;7177;48.572;7.838;2023-03-03T07:07:27;1.10;99.90
14192;DHT22;7177;48.572;7.838;2023-03-03T07:09:54;1.10;99.90
14192;DHT22;7177;48.572;7.838;2023-03-03T07:12:26;1.10;99.90
14192;DHT22;7177;48.572;7.838;2023-03-03T07:15:14;1.20;99.90
14192;DHT22;7177;48.572;7.838;2023-03-03T07:17:44;1.20;99.90
14192;DHT22;7177;48.572;7.838;2023-03-03T07:20:21;1.30;99.90
14192;DHT22;7177;48.572;7.838;2023-03-03T07:22:47;1.30;99.90
14192;DHT22;7177;48.572;7.838;2023-03-03T07:25:21;1.30;99.90
14192;DHT22;7177;48.572;7.838;2023-03-03T07:27:49;1.70;99.90
14192;DHT22;7177;48.572;7.838;2023-03-03T07:32:45;1.80;99.90
14192;DHT22;7177;48.572;7.838;2023-03-03T07:35:36;1.70;99.90
14192;DHT22;7177;48.572;7.838;2023-03-03T07:40:59;1.60;99.90
14192;DHT22;7177;48.572;7.838;2023-03-03T07:43:38;1.60;99.90
14192;DHT22;7177;48.572;7.838;2023-03-03T07:48:37;1.70;99.90
14192;DHT22;7177;48.572;7.838;2023-03-03T07:51:25;1.90;99.90
14192;DHT22;7177;48.572;7.838;2023-03-03T07:53:53;2.00;99.90
14192;DHT22;7177;48.572;7.838;2023-03-03T07:56:28;2.00;99.90
14192;DHT22;7177;48.572;7.838;2023-03-03T07:58:54;2.00;99.90
14192;DHT22;7177;48.572;7.838;2023-03-03T08:01:41;1.90;99.90
14192;DHT22;7177;48.572;7.838;2023-03-03T08:04:23;1.70;99.90
14192;DHT22;7177;48.572;7.838;2023-03-03T08:06:59;1.60;99.90
14192;DHT22;7177;48.572;7.838;2023-03-03T08:09:36;1.60;99.90
14192;DHT22;7177;48.572;7.838;2023-03-03T08:14:53;1.80;99.90
14192;DHT22;7177;48.572;7.838;2023-03-03T08:17:21;1.90;99.90
14192;DHT22;7177;48.572;7.838;2023-03-03T08:19:49;1.90;99.90
14192;DHT22;7177;48.572;7.838;2023-03-03T08:22:38;2.00;99.90
14192;DHT22;7177;48.572;7.838;2023-03-03T08:25:02;2.10;99.90
14192;DHT22;7177;48.572;7.838;2023-03-03T08:27:28;2.10;99.90
14192;DHT22;7177;48.572;7.838;2023-03-03T08:29:53;2.10;99.90
14192;DHT22;7177;48.572;7.838;2023-03-03T08:32:19;2.20;99.90
14192;DHT22;7177;48.572;7.838;2023-03-03T08:34:44;2.20;99.90
14192;DHT22;7177;48.572;7.838;2023-03-03T08:37:10;2.30;99.90
14192;DHT22;7177;48.572;7.838;2023-03-03T08:39:35;2.40;99.90
14192;DHT22;7177;48.572;7.838;2023-03-03T08:42:01;2.50;99.90
14192;DHT22;7177;48.572;7.838;2023-03-03T08:44:26;2.60;99.90
14192;DHT22;7177;48.572;7.838;2023-03-03T08:46:52;2.70;99.90
14192;DHT22;7177;48.572;7.838;2023-03-03T08:49:18;2.80;99.90
14192;DHT22;7177;48.572;7.838;2023-03-03T08:51:44;3.00;99.90
14192;DHT22;7177;48.572;7.838;2023-03-03T08:54:09;3.00;99.90
14192;DHT22;7177;48.572;7.838;2023-03-03T08:56:35;3.20;99.90
14192;DHT22;7177;48.572;7.838;2023-03-03T08:59:01;3.30;99.90
14192;DHT22;7177;48.572;7.838;2023-03-03T09:01:26;3.40;99.90
14192;DHT22;7177;48.572;7.838;2023-03-03T09:03:52;3.50;99.90
14192;DHT22;7177;48.572;7.838;2023-03-03T09:06:17;3.60;99.90
14192;DHT22;7177;48.572;7.838;2023-03-03T09:08:43;3.60;99.90
14192;DHT22;7177;48.572;7.838;2023-03-03T09:11:13;3.60;99.90
14192;DHT22;7177;48.572;7.838;2023-03-03T09:13:39;3.70;99.90
14192;DHT22;7177;48.572;7.838;2023-03-03T09:16:13;3.70;99.90
14192;DHT22;7177;48.572;7.838;2023-03-03T09:18:39;3.70;99.90
14192;DHT22;7177;48.572;7.838;2023-03-03T09:21:25;3.70;99.90
14192;DHT22;7177;48.572;7.838;2023-03-03T09:23:59;3.80;99.90
14192;DHT22;7177;48.572;7.838;2023-03-03T09:28:54;4.00;99.90
14192;DHT22;7177;48.572;7.838;2023-03-03T09:31:26;4.10;99.90
14192;DHT22;7177;48.572;7.838;2023-03-03T09:33:52;4.20;99.90
14192;DHT22;7177;48.572;7.838;2023-03-03T09:36:29;4.30;99.90
14192;DHT22;7177;48.572;7.838;2023-03-03T09:38:59;4.40;99.90
14192;DHT22;7177;48.572;7.838;2023-03-03T09:41:46;4.60;99.90
14192;DHT22;7177;48.572;7.838;2023-03-03T09:47:22;4.80;99.90
14192;DHT22;7177;48.572;7.838;2023-03-03T09:56:06;5.50;99.90
14192;DHT22;7177;48.572;7.838;2023-03-03T09:58:54;5.60;99.90
14192;DHT22;7177;48.572;7.838;2023-03-03T10:01:36;5.60;99.90
14192;DHT22;7177;48.572;7.838;2023-03-03T10:07:31;5.60;99.90
14192;DHT22;7177;48.572;7.838;2023-03-03T10:10:09;5.70;99.90
14192;DHT22;7177;48.572;7.838;2023-03-03T10:17:57;5.90;99.90
14192;DHT22;7177;48.572;7.838;2023-03-03T10:28:25;6.60;99.90
14192;DHT22;7177;48.572;7.838;2023-03-03T10:31:38;6.90;99.90
14192;DHT22;7177;48.572;7.838;2023-03-03T10:34:31;7.40;99.90
14192;DHT22;7177;48.572;7.838;2023-03-03T10:40:00;8.90;99.90
14192;DHT22;7177;48.572;7.838;2023-03-03T10:49:21;10.30;99.90
14192;DHT22;7177;48.572;7.838;2023-03-03T10:59:32;11.10;99.90
14192;DHT22;7177;48.572;7.838;2023-03-03T11:02:00;11.70;99.90
14192;DHT22;7177;48.572;7.838;2023-03-03T11:05:02;12.10;99.90
14192;DHT22;7177;48.572;7.838;2023-03-03T11:07:40;12.50;99.90
14192;DHT22;7177;48.572;7.838;2023-03-03T11:21:00;13.90;96.40
14192;DHT22;7177;48.572;7.838;2023-03-03T11:23:52;14.00;96.30
14192;DHT22;7177;48.572;7.838;2023-03-03T11:34:44;14.10;95.70
14192;DHT22;7177;48.572;7.838;2023-03-03T11:37:21;14.60;95.10
14192;DHT22;7177;48.572;7.838;2023-03-03T11:39:49;15.00;93.50
14192;DHT22;7177;48.572;7.838;2023-03-03T11:50:15;14.60;95.70
14192;DHT22;7177;48.572;7.838;2023-03-03T11:52:51;14.40;95.30
14192;DHT22;7177;48.572;7.838;2023-03-03T11:55:26;14.00;95.70
14192;DHT22;7177;48.572;7.838;2023-03-03T12:00:56;14.40;94.80
14192;DHT22;7177;48.572;7.838;2023-03-03T12:03:48;14.50;94.60
14192;DHT22;7177;48.572;7.838;2023-03-03T12:06:48;14.10;94.80
14192;DHT22;7177;48.572;7.838;2023-03-03T12:09:46;14.20;95.90
14192;DHT22;7177;48.572;7.838;2023-03-03T12:12:26;14.80;95.40
14192;DHT22;7177;48.572;7.838;2023-03-03T12:26:33;15.10;93.10
14192;DHT22;7177;48.572;7.838;2023-03-03T12:29:18;14.60;93.00
14192;DHT22;7177;48.572;7.838;2023-03-03T12:37:25;14.90;93.20
14192;DHT22;7177;48.572;7.838;2023-03-03T12:40:06;15.10;92.20
14192;DHT22;7177;48.572;7.838;2023-03-03T12:43:12;15.10;92.40
14192;DHT22;7177;48.572;7.838;2023-03-03T12:48:41;15.30;92.40
14192;DHT22;7177;48.572;7.838;2023-03-03T12:54:50;15.80;91.70
14192;DHT22;7177;48.572;7.838;2023-03-03T12:57:22;16.00;90.50
14192;DHT22;7177;48.572;7.838;2023-03-03T13:02:42;15.80;90.10
14192;DHT22;7177;48.572;7.838;2023-03-03T13:08:29;16.20;90.10
14192;DHT22;7177;48.572;7.838;2023-03-03T13:13:55;16.00;89.20
14192;DHT22;7177;48.572;7.838;2023-03-03T13:16:44;15.50;90.40
14192;DHT22;7177;48.572;7.838;2023-03-03T13:19:22;15.50;90.00
14192;DHT22;7177;48.572;7.838;2023-03-03T13:21:49;15.20;90.30
14192;DHT22;7177;48.572;7.838;2023-03-03T13:24:31;15.00;89.10
14192;DHT22;7177;48.572;7.838;2023-03-03T13:27:09;14.80;90.60
14192;DHT22;7177;48.572;7.838;2023-03-03T13:29:38;14.70;91.50
14192;DHT22;7177;48.572;7.838;2023-03-03T13:32:12;14.80;91.20
14192;DHT22;7177;48.572;7.838;2023-03-03T13:37:41;14.90;91.90
14192;DHT22;7177;48.572;7.838;2023-03-03T13:40:20;15.00;90.90
14192;DHT22;7177;48.572;7.838;2023-03-03T13:43:16;15.50;89.80
14192;DHT22;7177;48.572;7.838;2023-03-03T13:48:56;15.50;88.00
14192;DHT22;7177;48.572;7.838;2023-03-03T13:51:30;15.40;88.60
14192;DHT22;7177;48.572;7.838;2023-03-03T13:54:11;15.50;86.60
14192;DHT22;7177;48.572;7.838;2023-03-03T14:05:25;15.70;84.60
14192;DHT22;7177;48.572;7.838;2023-03-03T14:07:58;16.00;85.50
14192;DHT22;7177;48.572;7.838;2023-03-03T14:10:31;16.00;82.30
14192;DHT22;7177;48.572;7.838;2023-03-03T14:13:04;16.10;83.80
14192;DHT22;7177;48.572;7.838;2023-03-03T14:15:55;15.70;84.70
14192;DHT22;7177;48.572;7.838;2023-03-03T14:19:31;15.50;86.30
14192;DHT22;7177;48.572;7.838;2023-03-03T14:21:42;15.70;83.10
14192;DHT22;7177;48.572;7.838;2023-03-03T14:24:16;16.10;83.00
14192;DHT22;7177;48.572;7.838;2023-03-03T14:26:57;16.40;80.80
14192;DHT22;7177;48.572;7.838;2023-03-03T14:32:00;15.70;83.60
14192;DHT22;7177;48.572;7.838;2023-03-03T14:34:39;15.40;83.20
14192;DHT22;7177;48.572;7.838;2023-03-03T14:37:25;15.30;83.30
14192;DHT22;7177;48.572;7.838;2023-03-03T14:40:16;15.50;85.30
14192;DHT22;7177;48.572;7.838;2023-03-03T14:42:47;15.70;82.30
14192;DHT22;7177;48.572;7.838;2023-03-03T14:47:53;15.10;82.50
14192;DHT22;7177;48.572;7.838;2023-03-03T14:55:45;14.70;82.80
14192;DHT22;7177;48.572;7.838;2023-03-03T14:58:33;14.70;84.60
14192;DHT22;7177;48.572;7.838;2023-03-03T15:09:36;15.30;84.40
14192;DHT22;7177;48.572;7.838;2023-03-03T15:12:25;15.30;84.80
14192;DHT22;7177;48.572;7.838;2023-03-03T15:15:01;15.30;84.50
14192;DHT22;7177;48.572;7.838;2023-03-03T15:17:40;14.90;83.20
14192;DHT22;7177;48.572;7.838;2023-03-03T15:20:41;14.70;84.20
14192;DHT22;7177;48.572;7.838;2023-03-03T15:23:21;14.60;85.50
14192;DHT22;7177;48.572;7.838;2023-03-03T15:25:59;14.50;86.40
14192;DHT22;7177;48.572;7.838;2023-03-03T15:31:36;14.40;86.30
14192;DHT22;7177;48.572;7.838;2023-03-03T15:34:20;14.10;87.60
14192;DHT22;7177;48.572;7.838;2023-03-03T15:36:56;13.80;88.60
14192;DHT22;7177;48.572;7.838;2023-03-03T15:39:35;13.70;90.00
14192;DHT22;7177;48.572;7.838;2023-03-03T15:42:13;13.60;90.00
14192;DHT22;7177;48.572;7.838;2023-03-03T15:44:48;13.60;90.40
14192;DHT22;7177;48.572;7.838;2023-03-03T15:53:17;13.30;91.60
14192;DHT22;7177;48.572;7.838;2023-03-03T16:03:46;12.90;92.30
14192;DHT22;7177;48.572;7.838;2023-03-03T16:09:01;12.30;94.10
14192;DHT22;7177;48.572;7.838;2023-03-03T16:20:49;11.60;97.20
14192;DHT22;7177;48.572;7.838;2023-03-03T16:26:09;11.60;96.60
14192;DHT22;7177;48.572;7.838;2023-03-03T16:31:28;11.40;97.70
14192;DHT22;7177;48.572;7.838;2023-03-03T16:34:00;11.30;98.40
14192;DHT22;7177;48.572;7.838;2023-03-03T16:36:53;11.20;99.10
14192;DHT22;7177;48.572;7.838;2023-03-03T16:39:28;11.20;99.80
14192;DHT22;7177;48.572;7.838;2023-03-03T16:50:14;11.10;99.90
14192;DHT22;7177;48.572;7.838;2023-03-03T16:53:37;11.00;99.90
14192;DHT22;7177;48.572;7.838;2023-03-03T17:01:49;10.80;99.90
14192;DHT22;7177;48.572;7.838;2023-03-03T17:10:04;10.40;99.90
14192;DHT22;7177;48.572;7.838;2023-03-03T17:18:10;10.10;99.90
14192;DHT22;7177;48.572;7.838;2023-03-03T17:21:09;10.00;99.90
14192;DHT22;7177;48.572;7.838;2023-03-03T17:23:57;9.90;99.90
14192;DHT22;7177;48.572;7.838;2023-03-03T17:30:02;9.70;99.90
14192;DHT22;7177;48.572;7.838;2023-03-03T17:33:06;9.60;99.90
14192;DHT22;7177;48.572;7.838;2023-03-03T17:39:03;9.50;99.90
14192;DHT22;7177;48.572;7.838;2023-03-03T17:41:39;9.40;99.90
14192;DHT22;7177;48.572;7.838;2023-03-03T17:44:19;9.40;99.90
14192;DHT22;7177;48.572;7.838;2023-03-03T17:46:51;9.40;99.90
14192;DHT22;7177;48.572;7.838;2023-03-03T17:52:07;9.10;99.90
14192;DHT22;7177;48.572;7.838;2023-03-03T17:54:56;9.00;99.90
14192;DHT22;7177;48.572;7.838;2023-03-03T18:00:45;8.80;99.90
14192;DHT22;7177;48.572;7.838;2023-03-03T18:03:33;8.70;99.90
14192;DHT22;7177;48.572;7.838;2023-03-03T18:06:29;8.60;99.90
14192;DHT22;7177;48.572;7.838;2023-03-03T18:09:12;8.50;99.90
14192;DHT22;7177;48.572;7.838;2023-03-03T18:12:08;8.40;99.90
14192;DHT22;7177;48.572;7.838;2023-03-03T18:15:19;8.40;99.90
14192;DHT22;7177;48.572;7.838;2023-03-03T18:23:35;8.20;99.90
14192;DHT22;7177;48.572;7.838;2023-03-03T18:29:05;8.10;99.90
14192;DHT22;7177;48.572;7.838;2023-03-03T18:31:48;8.00;99.90
14192;DHT22;7177;48.572;7.838;2023-03-03T18:34:33;8.00;99.90
14192;DHT22;7177;48.572;7.838;2023-03-03T18:39:44;7.80;99.90
14192;DHT22;7177;48.572;7.838;2023-03-03T18:44:45;7.60;99.90
14192;DHT22;7177;48.572;7.838;2023-03-03T18:47:12;7.50;99.90
14192;DHT22;7177;48.572;7.838;2023-03-03T18:50:00;7.40;99.90
14192;DHT22;7177;48.572;7.838;2023-03-03T18:52:30;7.30;99.90
14192;DHT22;7177;48.572;7.838;2023-03-03T18:55:21;7.20;99.90
14192;DHT22;7177;48.572;7.838;2023-03-03T19:01:13;7.00;99.90
14192;DHT22;7177;48.572;7.838;2023-03-03T19:06:55;6.90;99.90
14192;DHT22;7177;48.572;7.838;2023-03-03T19:09:46;6.80;99.90
14192;DHT22;7177;48.572;7.838;2023-03-03T19:12:15;6.70;99.90
14192;DHT22;7177;48.572;7.838;2023-03-03T19:14:46;6.60;99.90
14192;DHT22;7177;48.572;7.838;2023-03-03T19:22:42;6.50;99.90
14192;DHT22;7177;48.572;7.838;2023-03-03T19:25:19;6.50;99.90
14192;DHT22;7177;48.572;7.838;2023-03-03T19:33:48;6.40;99.90
14192;DHT22;7177;48.572;7.838;2023-03-03T19:36:40;6.40;99.90
14192;DHT22;7177;48.572;7.838;2023-03-03T19:42:04;6.30;99.90
14192;DHT22;7177;48.572;7.838;2023-03-03T19:53:13;6.20;99.90
14192;DHT22;7177;48.572;7.838;2023-03-03T20:01:20;6.10;99.90
14192;DHT22;7177;48.572;7.838;2023-03-03T20:12:04;5.70;99.90
14192;DHT22;7177;48.572;7.838;2023-03-03T20:14:42;5.70;99.90
14192;DHT22;7177;48.572;7.838;2023-03-03T20:17:25;5.60;99.90
14192;DHT22;7177;48.572;7.838;2023-03-03T20:22:55;5.30;99.90
14192;DHT22;7177;48.572;7.838;2023-03-03T20:25:28;5.10;99.90
14192;DHT22;7177;48.572;7.838;2023-03-03T20:28:00;5.10;99.90
14192;DHT22;7177;48.572;7.838;2023-03-03T20:33:25;4.90;99.90
14192;DHT22;7177;48.572;7.838;2023-03-03T20:36:15;5.00;99.90
14192;DHT22;7177;48.572;7.838;2023-03-03T20:41:17;5.10;99.90
14192;DHT22;7177;48.572;7.838;2023-03-03T20:44:03;5.10;99.90
14192;DHT22;7177;48.572;7.838;2023-03-03T20:49:39;5.10;99.90
14192;DHT22;7177;48.572;7.838;2023-03-03T20:52:18;5.10;99.90
14192;DHT22;7177;48.572;7.838;2023-03-03T20:58:05;5.10;99.90
14192;DHT22;7177;48.572;7.838;2023-03-03T21:01:07;5.10;99.90
14192;DHT22;7177;48.572;7.838;2023-03-03T21:03:36;5.10;99.90
14192;DHT22;7177;48.572;7.838;2023-03-03T21:06:19;5.10;99.90
14192;DHT22;7177;48.572;7.838;2023-03-03T21:08:50;5.00;99.90
14192;DHT22;7177;48.572;7.838;2023-03-03T21:13:50;4.90;99.90
14192;DHT22;7177;48.572;7.838;2023-03-03T21:18:59;4.80;99.90
14192;DHT22;7177;48.572;7.838;2023-03-03T21:21:27;4.70;99.90
14192;DHT22;7177;48.572;7.838;2023-03-03T21:23:54;4.60;99.90
14192;DHT22;7177;48.572;7.838;2023-03-03T21:26:53;4.60;99.90
14192;DHT22;7177;48.572;7.838;2023-03-03T21:32:07;4.50;99.90
14192;DHT22;7177;48.572;7.838;2023-03-03T21:34:35;4.50;99.90
14192;DHT22;7177;48.572;7.838;2023-03-03T21:37:12;4.50;99.90
14192;DHT22;7177;48.572;7.838;2023-03-03T21:39:41;4.50;99.90
14192;DHT22;7177;48.572;7.838;2023-03-03T21:42:13;4.40;99.90